createdAt,value
2022-12-25T00:02:00.743Z,100.00
2022-12-25T00:05:03.560Z,100.00
2022-12-25T00:08:06.994Z,100.00
2022-12-25T00:11:13.250Z,100.00
2022-12-25T00:14:15.903Z,100.00
2022-12-25T00:17:18.362Z,100.00
2022-12-25T00:20:20.880Z,100.00
2022-12-25T00:23:23.321Z,100.00
2022-12-25T00:26:26.970Z,100.00
2022-12-25T00:29:29.517Z,100.00
2022-12-25T00:32:32.040Z,100.00
2022-12-25T00:35:34.468Z,100.00
2022-12-25T00:38:38.767Z,100.00
2022-12-25T00:42:00.074Z,100.00
2022-12-25T00:45:02.543Z,100.00
2022-12-25T00:48:05.605Z,99.32
2022-12-25T00:51:11.265Z,99.06
2022-12-25T00:54:13.746Z,98.67
2022-12-25T00:57:16.200Z,98.50
2022-12-25T01:00:19.036Z,98.06
2022-12-25T01:03:22.018Z,98.01
2022-12-25T01:06:25.457Z,97.99
2022-12-25T01:09:59.927Z,98.15
2022-12-25T01:13:02.367Z,98.43
2022-12-25T01:16:11.676Z,98.80
2022-12-25T01:19:14.347Z,100.00
2022-12-25T01:22:16.893Z,100.00
2022-12-25T01:25:19.627Z,100.00
2022-12-25T01:28:22.183Z,100.00
2022-12-25T01:31:25.174Z,100.00
2022-12-25T01:34:27.742Z,100.00
2022-12-25T01:37:30.246Z,100.00
2022-12-25T01:40:34.402Z,100.00
2022-12-25T01:44:06.801Z,100.00
2022-12-25T01:47:09.261Z,100.00
2022-12-25T01:50:11.943Z,99.41
2022-12-25T01:53:14.579Z,98.66
2022-12-25T01:56:17.117Z,98.41
2022-12-25T01:59:22.345Z,98.62
2022-12-25T02:02:25.077Z,98.95
2022-12-25T02:05:32.596Z,99.64
2022-12-25T02:08:35.038Z,99.40
2022-12-25T02:11:56.019Z,98.91
2022-12-25T02:15:06.085Z,98.57
2022-12-25T02:18:18.487Z,98.80
2022-12-25T02:21:53.008Z,99.23
2022-12-25T02:25:22.949Z,99.05
2022-12-25T02:28:34.602Z,98.89
2022-12-25T02:31:49.193Z,99.23
2022-12-25T02:34:59.604Z,99.15
2022-12-25T02:38:11.080Z,99.27
2022-12-25T02:41:16.148Z,99.15
2022-12-25T02:44:41.541Z,98.76
2022-12-25T02:48:03.030Z,99.34
2022-12-25T02:51:27.124Z,98.95
2022-12-25T02:54:54.817Z,99.09
2022-12-25T02:58:19.026Z,99.21
2022-12-25T03:01:42.183Z,100.00
2022-12-25T03:05:03.149Z,100.00
2022-12-25T03:08:11.273Z,100.00
2022-12-25T03:11:31.813Z,100.00
2022-12-25T03:14:53.108Z,100.00
2022-12-25T03:17:57.841Z,100.00
2022-12-25T03:21:18.835Z,100.00
2022-12-25T03:24:40.457Z,100.00
2022-12-25T03:27:44.577Z,100.00
2022-12-25T03:31:25.604Z,100.00
2022-12-25T03:35:08.577Z,100.00
2022-12-25T03:38:41.778Z,100.00
2022-12-25T03:42:06.491Z,100.00
2022-12-25T03:45:31.535Z,100.00
2022-12-25T03:48:55.171Z,100.00
2022-12-25T03:52:17.718Z,100.00
2022-12-25T03:55:39.128Z,100.00
2022-12-25T03:59:21.040Z,100.00
2022-12-25T04:02:44.613Z,100.00
2022-12-25T04:06:05.684Z,100.00
2022-12-25T04:09:26.432Z,100.00
2022-12-25T04:12:47.355Z,100.00
2022-12-25T04:16:10.675Z,100.00
2022-12-25T04:19:32.376Z,100.00
2022-12-25T04:22:53.209Z,100.00
2022-12-25T04:26:17.041Z,100.00
2022-12-25T04:29:37.794Z,100.00
2022-12-25T04:32:58.580Z,100.00
2022-12-25T04:36:11.061Z,100.00
2022-12-25T04:39:13.783Z,100.00
2022-12-25T04:42:16.747Z,100.00
2022-12-25T04:45:19.512Z,100.00
2022-12-25T04:48:22.646Z,100.00
2022-12-25T04:51:26.161Z,100.00
2022-12-25T04:54:28.683Z,100.00
2022-12-25T04:57:31.128Z,100.00
2022-12-25T05:00:33.746Z,100.00
2022-12-25T05:03:36.790Z,100.00
2022-12-25T05:06:40.306Z,100.00
2022-12-25T05:09:42.729Z,100.00
2022-12-25T05:12:45.226Z,100.00
2022-12-25T05:15:47.855Z,100.00
2022-12-25T05:18:51.469Z,100.00
2022-12-25T05:21:58.069Z,100.00
2022-12-25T05:25:00.536Z,100.00
2022-12-25T05:28:02.980Z,100.00
2022-12-25T05:31:05.650Z,98.84
2022-12-25T05:34:08.098Z,98.70
2022-12-25T05:37:10.588Z,99.25
2022-12-25T05:40:13.060Z,99.25
2022-12-25T05:43:15.546Z,99.85
2022-12-25T05:46:18.064Z,100.00
2022-12-25T05:49:20.588Z,99.70
2022-12-25T05:52:23.486Z,100.00
2022-12-25T05:55:25.879Z,100.00
2022-12-25T05:58:28.451Z,100.00
2022-12-25T06:01:31.196Z,100.00
2022-12-25T06:04:33.740Z,100.00
2022-12-25T06:07:36.874Z,100.00
2022-12-25T06:10:39.461Z,99.78
2022-12-25T06:13:42.381Z,99.98
2022-12-25T06:16:44.879Z,99.62
2022-12-25T06:19:47.404Z,100.00
2022-12-25T06:22:49.837Z,100.00
2022-12-25T06:25:52.621Z,99.66
2022-12-25T06:28:55.094Z,100.00
2022-12-25T06:31:58.948Z,99.90
2022-12-25T06:35:01.511Z,99.74
2022-12-25T06:38:03.966Z,99.64
2022-12-25T06:41:17.994Z,99.83
2022-12-25T06:44:21.405Z,99.97
2022-12-25T06:47:23.844Z,99.68
2022-12-25T06:50:26.426Z,99.48
2022-12-25T06:53:33.519Z,99.34
2022-12-25T06:56:39.711Z,100.00
2022-12-25T06:59:42.191Z,99.33
2022-12-25T07:02:46.922Z,99.68
2022-12-25T07:05:49.402Z,100.00
2022-12-25T07:08:52.072Z,100.00
2022-12-25T07:11:54.903Z,100.00
2022-12-25T07:14:57.507Z,100.00
2022-12-25T07:17:59.938Z,100.00
2022-12-25T07:21:06.971Z,100.00
2022-12-25T07:24:09.465Z,100.00
2022-12-25T07:27:11.886Z,100.00
2022-12-25T07:30:14.457Z,99.89
2022-12-25T07:33:17.194Z,100.00
2022-12-25T07:36:19.569Z,99.98
2022-12-25T07:39:22.157Z,99.93
2022-12-25T07:42:25.504Z,99.87
2022-12-25T07:45:30.137Z,99.60
2022-12-25T07:48:32.942Z,99.41
2022-12-25T07:51:35.540Z,98.94
2022-12-25T07:54:37.968Z,98.24
2022-12-25T07:57:40.362Z,98.08
2022-12-25T08:00:42.710Z,98.05
2022-12-25T08:03:49.544Z,97.98
2022-12-25T08:06:52.146Z,98.46
2022-12-25T08:09:54.546Z,98.00
2022-12-25T08:12:57.030Z,97.83
2022-12-25T08:16:04.592Z,97.74
2022-12-25T08:19:08.375Z,97.47
2022-12-25T08:22:10.745Z,97.20
2022-12-25T08:25:13.368Z,97.12
2022-12-25T08:28:15.779Z,97.29
2022-12-25T08:31:24.271Z,96.81
2022-12-25T08:34:26.724Z,96.87
2022-12-25T08:37:32.028Z,96.59
2022-12-25T08:40:34.747Z,96.87
2022-12-25T08:43:37.552Z,96.73
2022-12-25T08:46:40.590Z,97.26
2022-12-25T08:49:43.025Z,96.91
2022-12-25T08:52:45.571Z,97.09
2022-12-25T08:55:48.027Z,97.53
2022-12-25T08:58:50.462Z,97.33
2022-12-25T09:01:52.942Z,96.68
2022-12-25T09:04:55.364Z,96.50
2022-12-25T09:07:57.725Z,96.51
2022-12-25T09:11:09.358Z,96.47
2022-12-25T09:14:14.246Z,96.21
2022-12-25T09:17:16.654Z,97.02
2022-12-25T09:20:19.226Z,97.32
2022-12-25T09:23:21.618Z,97.20
2022-12-25T09:26:24.159Z,96.44
2022-12-25T09:29:26.631Z,96.39
2022-12-25T09:32:29.038Z,97.12
2022-12-25T09:35:31.506Z,97.38
2022-12-25T09:38:34.720Z,97.64
2022-12-25T09:41:56.680Z,98.53
2022-12-25T09:45:02.805Z,98.40
2022-12-25T09:48:05.964Z,98.42
2022-12-25T09:51:15.186Z,98.07
2022-12-25T09:54:32.362Z,97.58
2022-12-25T09:57:34.957Z,97.35
2022-12-25T10:01:18.088Z,97.68
2022-12-25T10:04:40.540Z,97.38
2022-12-25T10:07:45.281Z,97.64
2022-12-25T10:10:56.667Z,97.73
2022-12-25T10:14:01.668Z,97.45
2022-12-25T10:17:16.107Z,95.94
2022-12-25T10:20:50.943Z,96.22
2022-12-25T10:23:59.128Z,95.88
2022-12-25T10:27:04.525Z,95.57
2022-12-25T10:30:19.142Z,95.96
2022-12-25T10:33:21.747Z,96.31
2022-12-25T10:36:26.952Z,95.81
2022-12-25T10:39:29.364Z,96.06
2022-12-25T10:42:42.586Z,95.98
2022-12-25T10:45:49.417Z,95.96
2022-12-25T10:48:57.392Z,95.52
2022-12-25T10:52:00.314Z,96.02
2022-12-25T10:55:13.369Z,95.15
2022-12-25T10:58:19.828Z,94.78
2022-12-25T11:01:27.890Z,95.20
2022-12-25T11:04:33.520Z,94.43
2022-12-25T11:07:46.836Z,94.97
2022-12-25T11:11:06.181Z,95.46
2022-12-25T11:14:17.100Z,94.73
2022-12-25T11:17:22.214Z,93.07
2022-12-25T11:20:25.626Z,93.28
2022-12-25T11:23:29.651Z,93.89
2022-12-25T11:26:37.375Z,94.49
2022-12-25T11:30:04.331Z,95.13
2022-12-25T11:33:11.043Z,95.27
2022-12-25T11:36:20.593Z,95.27
2022-12-25T11:39:27.439Z,94.38
2022-12-25T11:42:34.312Z,94.13
2022-12-25T11:45:44.134Z,93.73
2022-12-25T11:48:56.219Z,94.64
2022-12-25T11:51:58.771Z,92.80
2022-12-25T11:55:07.940Z,93.41
2022-12-25T11:58:25.531Z,94.12
2022-12-25T12:01:37.071Z,94.84
2022-12-25T12:04:43.584Z,95.27
2022-12-25T12:07:53.844Z,94.42
2022-12-25T12:11:24.290Z,94.85
2022-12-25T12:14:29.321Z,95.19
2022-12-25T12:17:32.186Z,94.23
2022-12-25T12:20:35.801Z,95.29
2022-12-25T12:24:09.743Z,96.16
2022-12-25T12:27:14.979Z,96.98
2022-12-25T12:30:29.546Z,95.78
2022-12-25T12:33:44.340Z,95.15
2022-12-25T12:36:46.806Z,95.77
2022-12-25T12:39:53.572Z,95.45
2022-12-25T12:42:56.377Z,95.27
2022-12-25T12:46:04.511Z,95.17
2022-12-25T12:49:27.993Z,96.19
2022-12-25T12:52:33.818Z,95.65
2022-12-25T12:55:36.359Z,96.37
2022-12-25T12:58:45.333Z,96.22
2022-12-25T13:02:25.322Z,96.14
2022-12-25T13:05:41.313Z,96.13
2022-12-25T13:09:07.481Z,96.25
2022-12-25T13:12:12.135Z,95.58
2022-12-25T13:15:15.076Z,96.68
2022-12-25T13:18:17.998Z,95.97
2022-12-25T13:21:26.293Z,97.37
2022-12-25T13:24:33.298Z,97.29
2022-12-25T13:27:35.853Z,96.57
2022-12-25T13:30:38.240Z,96.01
2022-12-25T13:33:44.837Z,95.79
2022-12-25T13:36:48.403Z,96.26
2022-12-25T13:39:51.827Z,97.04
2022-12-25T13:42:59.032Z,96.72
2022-12-25T13:46:01.585Z,97.60
2022-12-25T13:49:13.297Z,96.54
2022-12-25T13:52:22.161Z,96.86
2022-12-25T13:55:26.486Z,96.92
2022-12-25T13:58:35.020Z,97.34
2022-12-25T14:01:42.700Z,96.84
2022-12-25T14:04:45.353Z,97.97
2022-12-25T14:07:54.975Z,97.05
2022-12-25T14:10:58.319Z,98.37
2022-12-25T14:14:04.294Z,98.29
2022-12-25T14:17:06.857Z,98.87
2022-12-25T14:20:28.101Z,99.36
2022-12-25T14:23:45.116Z,99.62
2022-12-25T14:26:47.739Z,99.65
2022-12-25T14:29:52.439Z,100.00
2022-12-25T14:32:55.983Z,99.54
2022-12-25T14:35:59.030Z,99.54
2022-12-25T14:39:06.914Z,99.51
2022-12-25T14:42:41.829Z,99.21
2022-12-25T14:46:00.556Z,99.77
2022-12-25T14:49:05.218Z,100.00
2022-12-25T14:52:24.904Z,100.00
2022-12-25T14:55:29.017Z,100.00
2022-12-25T14:58:34.898Z,100.00
2022-12-25T15:01:40.270Z,100.00
2022-12-25T15:04:44.092Z,100.00
2022-12-25T15:07:46.592Z,100.00
2022-12-25T15:11:05.447Z,100.00
2022-12-25T15:14:07.952Z,100.00
2022-12-25T15:17:26.734Z,100.00
2022-12-25T15:20:31.853Z,100.00
2022-12-25T15:23:34.334Z,100.00
2022-12-25T15:26:36.751Z,100.00
2022-12-25T15:30:08.663Z,100.00
2022-12-25T15:33:01.767Z,100.00
2022-12-25T15:36:04.314Z,100.00
2022-12-25T15:39:07.182Z,100.00
2022-12-25T15:42:22.940Z,100.00
2022-12-25T15:45:28.172Z,100.00
2022-12-25T15:48:31.813Z,100.00
2022-12-25T15:51:34.314Z,100.00
2022-12-25T15:54:37.292Z,100.00
2022-12-25T15:57:44.322Z,100.00
2022-12-25T16:00:46.851Z,100.00
2022-12-25T16:03:49.392Z,100.00
2022-12-25T16:06:52.182Z,100.00
2022-12-25T16:09:54.666Z,100.00
2022-12-25T16:12:57.100Z,100.00
2022-12-25T16:15:59.749Z,100.00
2022-12-25T16:19:02.193Z,100.00
2022-12-25T16:22:14.647Z,100.00
2022-12-25T16:25:19.140Z,100.00
2022-12-25T16:28:21.605Z,100.00
2022-12-25T16:31:24.061Z,100.00
2022-12-25T16:34:26.496Z,100.00
2022-12-25T16:37:29.221Z,100.00
2022-12-25T16:40:31.964Z,100.00
2022-12-25T16:43:35.210Z,100.00
2022-12-25T16:46:40.296Z,100.00
2022-12-25T16:49:42.996Z,100.00
2022-12-25T16:52:45.371Z,100.00
2022-12-25T16:55:47.794Z,100.00
2022-12-25T16:58:50.203Z,100.00
2022-12-25T17:01:52.665Z,100.00
2022-12-25T17:04:55.097Z,100.00
2022-12-25T17:07:59.433Z,100.00
2022-12-25T17:11:04.633Z,100.00
2022-12-25T17:14:07.290Z,100.00
2022-12-25T17:17:09.721Z,100.00
2022-12-25T17:20:12.599Z,100.00
2022-12-25T17:23:14.973Z,100.00
2022-12-25T17:26:17.512Z,100.00
2022-12-25T17:29:22.333Z,100.00
2022-12-25T17:32:25.260Z,100.00
2022-12-25T17:35:28.203Z,100.00
2022-12-25T17:38:31.507Z,100.00
2022-12-25T17:41:34.528Z,100.00
2022-12-25T17:44:36.935Z,100.00
2022-12-25T17:47:39.334Z,100.00
2022-12-25T17:50:41.877Z,100.00
2022-12-25T17:53:46.243Z,100.00
2022-12-25T17:56:49.435Z,100.00
2022-12-25T17:59:52.112Z,100.00
2022-12-25T18:02:54.668Z,100.00
2022-12-25T18:06:00.277Z,100.00
2022-12-25T18:09:04.825Z,100.00
2022-12-25T18:12:07.344Z,100.00
2022-12-25T18:15:11.497Z,100.00
2022-12-25T18:18:14.135Z,100.00
2022-12-25T18:21:16.594Z,100.00
2022-12-25T18:24:18.945Z,100.00
2022-12-25T18:27:21.345Z,100.00
2022-12-25T18:30:23.763Z,100.00
2022-12-25T18:33:26.559Z,100.00
2022-12-25T18:36:30.202Z,100.00
2022-12-25T18:39:33.415Z,100.00
2022-12-25T18:42:39.572Z,100.00
2022-12-25T18:45:42.538Z,100.00
2022-12-25T18:48:45.188Z,100.00
2022-12-25T18:51:48.789Z,100.00
2022-12-25T18:54:51.195Z,100.00
2022-12-25T18:57:53.827Z,100.00
2022-12-25T19:00:56.422Z,100.00
2022-12-25T19:04:04.410Z,100.00
2022-12-25T19:07:08.159Z,100.00
2022-12-25T19:10:10.732Z,100.00
2022-12-25T19:13:13.359Z,100.00
2022-12-25T19:16:16.115Z,100.00
2022-12-25T19:19:21.775Z,100.00
2022-12-25T19:22:24.243Z,100.00
2022-12-25T19:25:27.831Z,100.00
2022-12-25T19:28:30.361Z,100.00
2022-12-25T19:31:33.228Z,100.00
2022-12-25T19:34:36.076Z,100.00
2022-12-25T19:37:38.502Z,100.00
2022-12-25T19:40:41.250Z,100.00
2022-12-25T19:43:45.673Z,100.00
2022-12-25T19:46:49.534Z,100.00
2022-12-25T19:49:53.425Z,100.00
2022-12-25T19:52:56.809Z,100.00
2022-12-25T19:56:02.905Z,100.00
2022-12-25T19:59:05.346Z,100.00
2022-12-25T20:02:09.512Z,100.00
2022-12-25T20:05:12.031Z,100.00
2022-12-25T20:08:14.682Z,100.00
2022-12-25T20:11:17.349Z,100.00
2022-12-25T20:14:19.840Z,100.00
2022-12-25T20:17:22.238Z,100.00
2022-12-25T20:20:24.661Z,100.00
2022-12-25T20:23:27.970Z,100.00
2022-12-25T20:26:31.166Z,100.00
2022-12-25T20:29:41.637Z,100.00
2022-12-25T20:32:50.063Z,100.00
2022-12-25T20:35:53.207Z,100.00
2022-12-25T20:38:55.813Z,100.00
2022-12-25T20:41:58.371Z,100.00
2022-12-25T20:45:00.915Z,100.00
2022-12-25T20:48:05.122Z,100.00
2022-12-25T20:51:13.736Z,100.00
2022-12-25T20:54:16.384Z,100.00
2022-12-25T20:57:18.893Z,100.00
2022-12-25T21:00:22.305Z,100.00
2022-12-25T21:03:25.043Z,100.00
2022-12-25T21:06:27.580Z,100.00
2022-12-25T21:09:30.053Z,100.00
2022-12-25T21:12:32.449Z,100.00
2022-12-25T21:15:34.838Z,100.00
2022-12-25T21:18:37.512Z,100.00
2022-12-25T21:21:42.835Z,100.00
2022-12-25T21:24:45.365Z,100.00
2022-12-25T21:27:47.772Z,100.00
2022-12-25T21:30:50.213Z,100.00
2022-12-25T21:33:54.055Z,100.00
2022-12-25T21:36:56.525Z,100.00
2022-12-25T21:39:59.587Z,100.00
2022-12-25T21:43:02.215Z,100.00
2022-12-25T21:46:07.095Z,100.00
2022-12-25T21:49:09.777Z,100.00
2022-12-25T21:52:12.300Z,100.00
2022-12-25T21:55:14.747Z,100.00
2022-12-25T21:58:17.233Z,100.00
2022-12-25T22:01:19.854Z,100.00
2022-12-25T22:04:23.332Z,100.00
2022-12-25T22:07:25.692Z,100.00
2022-12-25T22:10:28.290Z,100.00
2022-12-25T22:13:49.311Z,100.00
2022-12-25T22:17:10.291Z,100.00
2022-12-25T22:20:16.387Z,100.00
2022-12-25T22:23:19.528Z,100.00
2022-12-25T22:26:21.905Z,100.00
2022-12-25T22:29:25.784Z,100.00
2022-12-25T22:32:28.627Z,100.00
2022-12-25T22:35:31.109Z,100.00
2022-12-25T22:38:33.750Z,100.00
2022-12-25T22:41:36.190Z,100.00
2022-12-25T22:44:38.670Z,100.00
2022-12-25T22:47:41.614Z,100.00
2022-12-25T22:50:44.095Z,100.00
2022-12-25T22:53:46.544Z,100.00
2022-12-25T22:56:51.186Z,100.00
2022-12-25T22:59:53.605Z,100.00
2022-12-25T23:02:56.260Z,100.00
2022-12-25T23:05:58.818Z,100.00
2022-12-25T23:09:01.895Z,100.00
2022-12-25T23:12:04.733Z,100.00
2022-12-25T23:15:07.671Z,100.00
2022-12-25T23:18:28.547Z,100.00
2022-12-25T23:21:49.932Z,100.00
2022-12-25T23:25:11.016Z,100.00
2022-12-25T23:28:13.466Z,100.00
2022-12-25T23:31:20.928Z,100.00
2022-12-25T23:34:23.914Z,100.00
2022-12-25T23:37:26.269Z,100.00
2022-12-25T23:40:30.151Z,100.00
2022-12-25T23:43:34.128Z,100.00
2022-12-25T23:46:36.883Z,100.00
2022-12-25T23:49:39.779Z,100.00
2022-12-25T23:52:42.220Z,100.00
2022-12-25T23:55:48.693Z,100.00
2022-12-25T23:58:54.194Z,100.00
